D/T METAR WX W/SPE G/SPE TEMP DEWP FEEL
25/05/22 01:50 EGNX 250050Z 20007KT CAVOK 10/05 Q1009 8.1mph 10°C 5°C 9.3°C
25/05/22 01:20 EGNX 250020Z 23009KT CAVOK 09/05 Q1010 10.4mph 9°C 5°C 8.3°C
25/05/22 00:50 EGNX 242350Z 23008KT CAVOK 09/05 Q1010 9.2mph 9°C 5°C 8.3°C
25/05/22 00:20 EGNX 242320Z 24008KT CAVOK 09/05 Q1010 9.2mph 9°C 5°C 8.3°C
24/05/22 23:50 EGNX 242250Z 25009KT CAVOK 10/06 Q1010 10.4mph 10°C 6°C 9.6°C
24/05/22 23:20 EGNX 242220Z 23007KT CAVOK 10/06 Q1009 8.1mph 10°C 6°C 9.6°C
24/05/22 22:50 EGNX 242150Z 25011KT CAVOK 11/06 Q1009 12.7mph 11°C 6°C 10.6°C
24/05/22 22:20 EGNX 242120Z 24010KT 9999 FEW047 11/05 Q1009 11.5mph 11°C 5°C 10.3°C
24/05/22 21:50 EGNX 242050Z 23008KT 9999 FEW047 12/06 Q1009 9.2mph 12°C 6°C 11.6°C
24/05/22 21:20 EGNX 242020Z 23006KT 9999 FEW048 13/06 Q1009 6.9mph 13°C 6°C 12.6°C
24/05/22 20:20 EGNX 241920Z 26006KT 9999 FEW045 13/06 Q1008 6.9mph 13°C 6°C 12.6°C
24/05/22 19:50 EGNX 241850Z 27008KT 9999 FEW042 13/05 Q1008 9.2mph 13°C 5°C 12.3°C
24/05/22 19:20 EGNX 241820Z 26009KT 9999 FEW042 14/06 Q1008 10.4mph 14°C 6°C 13.6°C
24/05/22 18:50 EGNX 241750Z 28008KT 250V320 9999 SCT045 14/06 Q1007 9.2mph 14°C 6°C 13.6°C
24/05/22 18:20 EGNX 241720Z 30011KT 9999 FEW037CB 14/06 Q1007 12.7mph 14°C 6°C 13.6°C
24/05/22 17:50 EGNX 241650Z 28011KT 250V320 9999 FEW038CB 15/06 Q1007 12.7mph 15°C 6°C 14.6°C
24/05/22 16:50 EGNX 241550Z 26010KT 220V280 9999 SCT037 14/06 Q1006 11.5mph 14°C 6°C 13.6°C
24/05/22 16:20 EGNX 241520Z 27015G25KT 9999 FEW035 SCT040 14/06 Q1006 17.3mph 28.8mph 14°C 6°C 13.6°C
24/05/22 15:50 EGNX 241450Z 27014KT 9999 FEW045 15/06 Q1006 16.1mph 15°C 6°C 14.6°C
24/05/22 15:20 EGNX 241420Z 25015KT 9999 VCSH FEW039CB 14/06 Q1006 VCSH 17.3mph 14°C 6°C 13.6°C
24/05/22 14:50 EGNX 241350Z 27015KT 9999 VCSH SCT039CB 16/07 Q1006 VCSH 17.3mph 16°C 7°C 16.0°C
24/05/22 14:20 EGNX 241320Z 27016KT 9999 FEW031CB SCT045TCU 14/06 Q1005 18.4mph 14°C 6°C 13.6°C
24/05/22 13:50 EGNX 241250Z 28014KT 9999 SCT035 12/06 Q1005 16.1mph 12°C 6°C 11.6°C
24/05/22 13:20 EGNX 241220Z 28014KT 9999 SCT036 15/07 Q1005 16.1mph 15°C 7°C 15.0°C
24/05/22 12:50 EGNX 241150Z 27014KT 9999 SCT040CB 15/07 Q1005 16.1mph 15°C 7°C 15.0°C
24/05/22 12:20 EGNX 241120Z 26013KT 9999 FEW026CB SCT036 13/08 Q1005 RESHRA 15.0mph 13°C 8°C 13.4°C
24/05/22 11:50 EGNX 241050Z 27014KT 250V310 9999 SHRA SCT029CB 13/07 Q1004 SHRA 16.1mph 13°C 7°C 13.0°C
24/05/22 11:20 EGNX 241020Z 29009KT 260V320 9999 FEW025TCU SCT036 13/08 Q1004 10.4mph 13°C 8°C 13.4°C
24/05/22 10:50 EGNX 240950Z 27011KT 250V320 9999 -SHRA FEW023CB BKN030 12/08 Q1004 -SHRA 12.7mph 12°C 8°C 12.4°C
24/05/22 10:20 EGNX 240920Z 25016KT 9999 -SHRA SCT023 BKN038 10/08 Q1004 RESHRA -SHRA 18.4mph 10°C 8°C 10.4°C
24/05/22 09:50 EGNX 240850Z 28011KT 240V320 9999 SCT027 SCT046 13/07 Q1003 12.7mph 13°C 7°C 13.0°C
24/05/22 09:20 EGNX 240820Z 29010KT 9999 SCT020 SCT040 11/07 Q1003 11.5mph 11°C 7°C 11.0°C
24/05/22 08:50 EGNX 240750Z 27012KT 9999 SCT013 SCT040 11/07 Q1003 13.8mph 11°C 7°C 11.0°C
24/05/22 08:20 EGNX 240720Z 29012KT 9999 SCT015 12/09 Q1003 13.8mph 12°C 9°C 12.8°C
24/05/22 07:50 EGNX 240650Z 26011KT 9999 FEW012 11/09 Q1002 12.7mph 11°C 9°C 11.8°C
24/05/22 07:20 EGNX 240620Z 26012KT 9999 FEW010 10/09 Q1002 13.8mph 10°C 9°C 10.8°C
24/05/22 06:50 EGNX 240550Z 26011KT 9999 FEW020 09/08 Q1002 12.7mph 9°C 8°C 9.4°C
24/05/22 06:20 EGNX 240520Z 26011KT 9999 FEW011 09/08 Q1001 12.7mph 9°C 8°C 9.4°C
24/05/22 05:50 EGNX 240450Z 26010KT 9999 FEW020 09/08 Q1001 11.5mph 9°C 8°C 9.4°C
24/05/22 05:20 EGNX 240420Z 26010KT 9999 FEW040 08/07 Q1001 11.5mph 8°C 7°C 8.0°C
24/05/22 04:50 EGNX 240350Z 27009KT 9999 -RA FEW015 SCT040 09/08 Q1001 RERA -RA 10.4mph 9°C 8°C 9.4°C
24/05/22 04:20 EGNX 240320Z 27013KT 8000 RA BKN039 09/08 Q1000 RA 15.0mph 9°C 8°C 9.4°C
24/05/22 03:50 EGNX 240250Z 26012KT 9999 -RA FEW008 BKN033 09/08 Q1000 -RA 13.8mph 9°C 8°C 9.4°C
24/05/22 03:20 EGNX 240220Z 26011KT 9999 -SHRA SCT040 09/08 Q1000 -SHRA 12.7mph 9°C 8°C 9.4°C
24/05/22 02:50 EGNX 240150Z 26009KT 9999 SCT040 09/08 Q1000 10.4mph 9°C 8°C 9.4°C
24/05/22 02:20 EGNX 240120Z 26010KT 9999 -RA SCT046 09/08 Q1000 -RA 11.5mph 9°C 8°C 9.4°C
24/05/22 01:50 EGNX 240050Z 26010KT 9999 FEW046 10/08 Q1000 11.5mph 10°C 8°C 10.4°C
24/05/22 01:20 EGNX 240020Z 26010KT CAVOK 10/07 Q1000 11.5mph 10°C 7°C 10.0°C
24/05/22 00:50 EGNX 232350Z 27009KT CAVOK 10/07 Q1000 10.4mph 10°C 7°C 10.0°C
24/05/22 00:20 EGNX 232320Z 27010KT CAVOK 10/07 Q1000 11.5mph 10°C 7°C 10.0°C
23/05/22 23:50 EGNX 232250Z 27010KT CAVOK 10/07 Q1000 11.5mph 10°C 7°C 10.0°C
23/05/22 23:20 EGNX 232220Z 27010KT CAVOK 10/08 Q1000 11.5mph 10°C 8°C 10.4°C
23/05/22 22:50 EGNX 232150Z 26010KT 9999 FEW040 10/09 Q1000 11.5mph 10°C 9°C 10.8°C
23/05/22 22:20 EGNX 232120Z 26011KT 9999 FEW040 11/09 Q1000 12.7mph 11°C 9°C 11.8°C
23/05/22 21:50 EGNX 232050Z 26010KT 9999 FEW040 11/10 Q1000 11.5mph 11°C 10°C 12.3°C
23/05/22 21:20 EGNX 232020Z 26009KT 9999 -RA SCT044 11/10 Q1000 -RA 10.4mph 11°C 10°C 12.3°C
23/05/22 20:50 EGNX 231950Z 26011KT 9999 FEW010 11/10 Q1000 12.7mph 11°C 10°C 12.3°C
23/05/22 20:20 EGNX 231920Z 25010KT 9999 -RA NSC 11/09 Q1000 -RA 11.5mph 11°C 9°C 11.8°C
23/05/22 19:50 EGNX 231850Z 25011KT 9999 -RA FEW020 12/08 Q1000 -RA 12.7mph 12°C 8°C 12.4°C
23/05/22 19:20 EGNX 231820Z 27010KT 9999 FEW025 11/08 Q1000 11.5mph 11°C 8°C 11.4°C
23/05/22 18:50 EGNX 231750Z 26010KT 9999 FEW030 12/10 Q1000 11.5mph 12°C 10°C 13.3°C
23/05/22 18:20 EGNX 231720Z 27010KT 9999 FEW015 12/09 Q1000 11.5mph 12°C 9°C 12.8°C
23/05/22 17:50 EGNX 231650Z 27012KT 9999 FEW030 12/10 Q1000 13.8mph 12°C 10°C 13.3°C
23/05/22 17:20 EGNX 231620Z 28009KT 9999 -RA FEW015 13/10 Q1000 -RA 10.4mph 13°C 10°C 14.3°C
23/05/22 16:50 EGNX 231550Z 28011KT 9999 SCT026 13/10 Q1000 12.7mph 13°C 10°C 14.3°C
23/05/22 16:20 EGNX 231520Z 27012KT 9999 FEW033 14/09 Q1000 13.8mph 14°C 9°C 14.8°C
23/05/22 14:50 EGNX 231350Z 24008KT 9999 FEW040 16/07 Q1000 9.2mph 16°C 7°C 16.0°C
23/05/22 14:20 EGNX 231320Z 24010KT 9999 FEW038 15/07 Q1000 11.5mph 15°C 7°C 15.0°C
23/05/22 13:20 EGNX 231220Z 26009KT 9999 FEW036 16/07 Q1000 10.4mph 16°C 7°C 16.0°C
23/05/22 12:50 EGNX 231150Z 25007KT 220V300 9999 SCT037 17/07 Q1001 8.1mph 17°C 7°C 17.0°C
23/05/22 12:20 EGNX 231120Z 28008KT 260V320 9999 SCT039 15/06 Q1001 9.2mph 15°C 6°C 14.6°C
23/05/22 11:50 EGNX 231050Z 26008KT 240V320 9999 FEW029 SCT038 16/07 Q1001 9.2mph 16°C 7°C 16.0°C
23/05/22 11:20 EGNX 231020Z 28007KT 240V310 9999 SCT029 SCT039 15/08 Q1001 8.1mph 15°C 8°C 15.4°C
23/05/22 10:50 EGNX 230950Z 27009KT 9999 SCT026 SCT043 15/07 Q1002 10.4mph 15°C 7°C 15.0°C
23/05/22 10:20 EGNX 230920Z 27008KT 230V310 9999 SCT023 14/08 Q1002 9.2mph 14°C 8°C 14.4°C
23/05/22 09:50 EGNX 230850Z 26009KT 220V290 9999 SCT022 14/08 Q1002 10.4mph 14°C 8°C 14.4°C
23/05/22 09:20 EGNX 230820Z 24009KT 9999 FEW022 14/08 Q1002 10.4mph 14°C 8°C 14.4°C
23/05/22 08:50 EGNX 230750Z 24010KT 9999 FEW020 13/08 Q1003 11.5mph 13°C 8°C 13.4°C
23/05/22 08:20 EGNX 230720Z 26010KT CAVOK 13/08 Q1003 11.5mph 13°C 8°C 13.4°C
23/05/22 07:50 EGNX 230650Z 26009KT CAVOK 13/08 Q1003 10.4mph 13°C 8°C 13.4°C
23/05/22 07:20 EGNX 230620Z 24009KT CAVOK 13/08 Q1003 10.4mph 13°C 8°C 13.4°C
23/05/22 06:50 EGNX 230550Z 25008KT CAVOK 13/09 Q1003 9.2mph 13°C 9°C 13.8°C
23/05/22 06:20 EGNX 230520Z 26009KT 9999 FEW027 BKN048 12/09 Q1003 10.4mph 12°C 9°C 12.8°C
23/05/22 05:50 EGNX 230450Z 27007KT 9999 FEW014 BKN020 12/09 Q1004 8.1mph 12°C 9°C 12.8°C
23/05/22 05:20 EGNX 230420Z 29008KT 9999 SCT013 BKN028 13/10 Q1004 9.2mph 13°C 10°C 14.3°C
23/05/22 04:50 EGNX 230350Z 22004KT 9999 FEW017 BKN038 13/11 Q1004 4.6mph 13°C 11°C 14.8°C
23/05/22 04:20 EGNX 230320Z 21004KT 170V240 9999 FEW018 BKN034 BKN048 13/11 Q1004 4.6mph 13°C 11°C 14.8°C
23/05/22 03:50 EGNX 230250Z 24003KT 9999 FEW014 SCT020 OVC034 13/11 Q1004 3.5mph 13°C 11°C 14.8°C
23/05/22 03:20 EGNX 230220Z 27007KT 9999 FEW016 BKN040 13/10 Q1005 8.1mph 13°C 10°C 14.3°C
23/05/22 02:50 EGNX 230150Z 26007KT 9999 FEW022 BKN038 14/10 Q1005 8.1mph 14°C 10°C 15.3°C
23/05/22 02:20 EGNX 230120Z 25007KT 9999 FEW025 BKN044 14/09 Q1005 8.1mph 14°C 9°C 14.8°C
23/05/22 01:50 EGNX 230050Z 24005KT 9999 FEW027 SCT039 14/09 Q1005 5.8mph 14°C 9°C 14.8°C
23/05/22 01:20 EGNX 230020Z 23006KT 9999 FEW038 15/09 Q1006 6.9mph 15°C 9°C 15.8°C
23/05/22 00:50 EGNX 222350Z 23006KT CAVOK 15/09 Q1006 6.9mph 15°C 9°C 15.8°C
23/05/22 00:20 EGNX 222320Z 23006KT CAVOK 15/09 Q1006 6.9mph 15°C 9°C 15.8°C
22/05/22 23:50 EGNX 222250Z 22004KT CAVOK 16/09 Q1006 4.6mph 16°C 9°C 16.8°C